sensor_id;sensor_type;location;lat;lon;timestamp;P1;durP1;ratioP1;P2;durP2;ratioP2
1376;SDS011;682;52.502;13.488;2022-10-16T00:01:25;7.60;;;5.10;;
1376;SDS011;682;52.502;13.488;2022-10-16T00:03:54;9.33;;;4.90;;
1376;SDS011;682;52.502;13.488;2022-10-16T00:06:22;8.63;;;4.87;;
1376;SDS011;682;52.502;13.488;2022-10-16T00:08:50;7.80;;;5.00;;
1376;SDS011;682;52.502;13.488;2022-10-16T00:11:18;7.77;;;4.90;;
1376;SDS011;682;52.502;13.488;2022-10-16T00:13:47;7.70;;;4.53;;
1376;SDS011;682;52.502;13.488;2022-10-16T00:16:15;8.40;;;4.77;;
1376;SDS011;682;52.502;13.488;2022-10-16T00:18:44;7.63;;;4.33;;
1376;SDS011;682;52.502;13.488;2022-10-16T00:21:11;7.93;;;4.33;;
1376;SDS011;682;52.502;13.488;2022-10-16T00:23:39;8.87;;;4.60;;
1376;SDS011;682;52.502;13.488;2022-10-16T00:26:08;7.87;;;4.40;;
1376;SDS011;682;52.502;13.488;2022-10-16T00:28:44;7.27;;;3.80;;
1376;SDS011;682;52.502;13.488;2022-10-16T00:31:15;7.40;;;4.07;;
1376;SDS011;682;52.502;13.488;2022-10-16T00:33:46;7.60;;;3.80;;
1376;SDS011;682;52.502;13.488;2022-10-16T00:36:14;7.87;;;4.40;;
1376;SDS011;682;52.502;13.488;2022-10-16T00:38:42;7.13;;;3.57;;
1376;SDS011;682;52.502;13.488;2022-10-16T00:41:09;7.90;;;4.23;;
1376;SDS011;682;52.502;13.488;2022-10-16T00:43:39;10.80;;;3.40;;
1376;SDS011;682;52.502;13.488;2022-10-16T00:46:10;7.90;;;3.70;;
1376;SDS011;682;52.502;13.488;2022-10-16T00:48:45;6.97;;;3.43;;
1376;SDS011;682;52.502;13.488;2022-10-16T00:51:16;7.33;;;3.50;;
1376;SDS011;682;52.502;13.488;2022-10-16T00:53:46;6.23;;;3.00;;
1376;SDS011;682;52.502;13.488;2022-10-16T00:56:13;7.53;;;3.07;;
1376;SDS011;682;52.502;13.488;2022-10-16T00:58:40;6.93;;;3.20;;
1376;SDS011;682;52.502;13.488;2022-10-16T01:01:07;6.70;;;3.00;;
1376;SDS011;682;52.502;13.488;2022-10-16T01:03:34;6.27;;;2.80;;
1376;SDS011;682;52.502;13.488;2022-10-16T01:06:07;6.83;;;3.00;;
1376;SDS011;682;52.502;13.488;2022-10-16T01:08:44;6.50;;;3.30;;
1376;SDS011;682;52.502;13.488;2022-10-16T01:11:20;7.17;;;2.83;;
1376;SDS011;682;52.502;13.488;2022-10-16T01:13:53;7.70;;;2.80;;
1376;SDS011;682;52.502;13.488;2022-10-16T01:16:26;6.20;;;2.70;;
1376;SDS011;682;52.502;13.488;2022-10-16T01:19:01;6.30;;;2.90;;
1376;SDS011;682;52.502;13.488;2022-10-16T01:21:38;6.10;;;2.53;;
1376;SDS011;682;52.502;13.488;2022-10-16T01:24:09;6.67;;;2.50;;
1376;SDS011;682;52.502;13.488;2022-10-16T01:26:50;6.73;;;2.63;;
1376;SDS011;682;52.502;13.488;2022-10-16T01:29:43;6.10;;;2.67;;
1376;SDS011;682;52.502;13.488;2022-10-16T01:32:16;6.53;;;3.03;;
1376;SDS011;682;52.502;13.488;2022-10-16T01:34:48;7.10;;;3.63;;
1376;SDS011;682;52.502;13.488;2022-10-16T01:37:20;6.77;;;3.50;;
1376;SDS011;682;52.502;13.488;2022-10-16T01:39:53;6.93;;;3.20;;
1376;SDS011;682;52.502;13.488;2022-10-16T01:42:25;6.40;;;2.80;;
1376;SDS011;682;52.502;13.488;2022-10-16T01:44:57;6.10;;;3.00;;
1376;SDS011;682;52.502;13.488;2022-10-16T01:47:26;6.20;;;2.97;;
1376;SDS011;682;52.502;13.488;2022-10-16T01:49:56;7.10;;;3.33;;
1376;SDS011;682;52.502;13.488;2022-10-16T01:52:25;7.30;;;3.33;;
1376;SDS011;682;52.502;13.488;2022-10-16T01:54:57;6.50;;;3.60;;
1376;SDS011;682;52.502;13.488;2022-10-16T01:57:26;6.50;;;2.93;;
1376;SDS011;682;52.502;13.488;2022-10-16T02:00:00;8.30;;;2.97;;
1376;SDS011;682;52.502;13.488;2022-10-16T02:02:33;6.10;;;3.00;;
1376;SDS011;682;52.502;13.488;2022-10-16T02:05:05;6.07;;;2.63;;
1376;SDS011;682;52.502;13.488;2022-10-16T02:07:53;8.60;;;3.70;;
1376;SDS011;682;52.502;13.488;2022-10-16T02:10:25;7.00;;;3.17;;
1376;SDS011;682;52.502;13.488;2022-10-16T02:12:59;6.60;;;3.00;;
1376;SDS011;682;52.502;13.488;2022-10-16T02:15:31;7.63;;;2.63;;
1376;SDS011;682;52.502;13.488;2022-10-16T02:18:05;6.40;;;2.63;;
1376;SDS011;682;52.502;13.488;2022-10-16T02:20:39;6.20;;;2.80;;
1376;SDS011;682;52.502;13.488;2022-10-16T02:23:17;7.00;;;3.13;;
1376;SDS011;682;52.502;13.488;2022-10-16T02:25:53;7.40;;;3.17;;
1376;SDS011;682;52.502;13.488;2022-10-16T02:28:27;7.33;;;2.97;;
1376;SDS011;682;52.502;13.488;2022-10-16T02:31:12;6.57;;;2.90;;
1376;SDS011;682;52.502;13.488;2022-10-16T02:33:48;6.63;;;2.33;;
1376;SDS011;682;52.502;13.488;2022-10-16T02:36:21;6.17;;;2.63;;
1376;SDS011;682;52.502;13.488;2022-10-16T02:38:49;6.70;;;2.83;;
1376;SDS011;682;52.502;13.488;2022-10-16T02:41:17;6.77;;;3.07;;
1376;SDS011;682;52.502;13.488;2022-10-16T02:43:48;7.63;;;2.80;;
1376;SDS011;682;52.502;13.488;2022-10-16T02:46:19;7.17;;;2.90;;
1376;SDS011;682;52.502;13.488;2022-10-16T02:48:47;6.63;;;2.50;;
1376;SDS011;682;52.502;13.488;2022-10-16T02:51:17;6.33;;;2.57;;
1376;SDS011;682;52.502;13.488;2022-10-16T02:53:49;6.30;;;2.47;;
1376;SDS011;682;52.502;13.488;2022-10-16T02:56:17;7.57;;;2.73;;
1376;SDS011;682;52.502;13.488;2022-10-16T02:58:50;8.93;;;2.83;;
1376;SDS011;682;52.502;13.488;2022-10-16T03:01:20;6.50;;;2.70;;
1376;SDS011;682;52.502;13.488;2022-10-16T03:03:47;6.80;;;2.77;;
1376;SDS011;682;52.502;13.488;2022-10-16T03:06:19;6.57;;;2.47;;
1376;SDS011;682;52.502;13.488;2022-10-16T03:08:46;7.00;;;2.60;;
1376;SDS011;682;52.502;13.488;2022-10-16T03:11:15;7.17;;;3.53;;
1376;SDS011;682;52.502;13.488;2022-10-16T03:13:41;7.30;;;3.17;;
1376;SDS011;682;52.502;13.488;2022-10-16T03:16:08;7.00;;;2.53;;
1376;SDS011;682;52.502;13.488;2022-10-16T03:18:36;6.70;;;2.70;;
1376;SDS011;682;52.502;13.488;2022-10-16T03:21:03;6.57;;;2.73;;
1376;SDS011;682;52.502;13.488;2022-10-16T03:23:30;6.33;;;2.60;;
1376;SDS011;682;52.502;13.488;2022-10-16T03:25:57;5.77;;;2.30;;
1376;SDS011;682;52.502;13.488;2022-10-16T03:28:24;6.60;;;2.60;;
1376;SDS011;682;52.502;13.488;2022-10-16T03:30:50;6.40;;;2.77;;
1376;SDS011;682;52.502;13.488;2022-10-16T03:33:18;6.20;;;2.70;;
1376;SDS011;682;52.502;13.488;2022-10-16T03:35:51;6.40;;;2.63;;
1376;SDS011;682;52.502;13.488;2022-10-16T03:38:19;7.17;;;3.13;;
1376;SDS011;682;52.502;13.488;2022-10-16T03:40:46;5.80;;;2.40;;
1376;SDS011;682;52.502;13.488;2022-10-16T03:43:13;6.77;;;2.73;;
1376;SDS011;682;52.502;13.488;2022-10-16T03:45:41;7.80;;;2.73;;
1376;SDS011;682;52.502;13.488;2022-10-16T03:48:07;8.13;;;2.67;;
1376;SDS011;682;52.502;13.488;2022-10-16T03:50:34;6.43;;;2.60;;
1376;SDS011;682;52.502;13.488;2022-10-16T03:53:02;5.73;;;2.20;;
1376;SDS011;682;52.502;13.488;2022-10-16T03:55:30;6.60;;;2.93;;
1376;SDS011;682;52.502;13.488;2022-10-16T03:57:56;8.53;;;3.10;;
1376;SDS011;682;52.502;13.488;2022-10-16T04:00:23;6.93;;;2.60;;
1376;SDS011;682;52.502;13.488;2022-10-16T04:02:53;6.33;;;2.80;;
1376;SDS011;682;52.502;13.488;2022-10-16T04:05:19;6.00;;;2.80;;
1376;SDS011;682;52.502;13.488;2022-10-16T04:07:46;7.10;;;3.17;;
1376;SDS011;682;52.502;13.488;2022-10-16T04:10:15;7.07;;;3.13;;
1376;SDS011;682;52.502;13.488;2022-10-16T04:12:41;8.40;;;3.03;;
1376;SDS011;682;52.502;13.488;2022-10-16T04:15:08;6.40;;;2.90;;
1376;SDS011;682;52.502;13.488;2022-10-16T04:17:35;6.53;;;3.33;;
1376;SDS011;682;52.502;13.488;2022-10-16T04:20:07;6.63;;;2.83;;
1376;SDS011;682;52.502;13.488;2022-10-16T04:22:34;6.43;;;2.63;;
1376;SDS011;682;52.502;13.488;2022-10-16T04:25:01;7.70;;;3.30;;
1376;SDS011;682;52.502;13.488;2022-10-16T04:27:29;7.23;;;3.10;;
1376;SDS011;682;52.502;13.488;2022-10-16T04:29:56;6.63;;;3.20;;
1376;SDS011;682;52.502;13.488;2022-10-16T04:32:23;6.40;;;2.63;;
1376;SDS011;682;52.502;13.488;2022-10-16T04:34:50;6.40;;;3.40;;
1376;SDS011;682;52.502;13.488;2022-10-16T04:37:16;6.50;;;2.63;;
1376;SDS011;682;52.502;13.488;2022-10-16T04:39:43;6.73;;;2.77;;
1376;SDS011;682;52.502;13.488;2022-10-16T04:42:11;7.40;;;3.43;;
1376;SDS011;682;52.502;13.488;2022-10-16T04:44:39;7.93;;;2.90;;
1376;SDS011;682;52.502;13.488;2022-10-16T04:47:07;9.10;;;3.40;;
1376;SDS011;682;52.502;13.488;2022-10-16T04:49:34;6.50;;;2.97;;
1376;SDS011;682;52.502;13.488;2022-10-16T04:52:00;6.80;;;3.23;;
1376;SDS011;682;52.502;13.488;2022-10-16T04:54:27;6.00;;;3.00;;
1376;SDS011;682;52.502;13.488;2022-10-16T04:56:54;5.83;;;2.50;;
1376;SDS011;682;52.502;13.488;2022-10-16T04:59:21;7.00;;;2.70;;
1376;SDS011;682;52.502;13.488;2022-10-16T05:01:49;6.80;;;3.47;;
1376;SDS011;682;52.502;13.488;2022-10-16T05:04:18;6.10;;;3.17;;
1376;SDS011;682;52.502;13.488;2022-10-16T05:06:47;6.50;;;3.50;;
1376;SDS011;682;52.502;13.488;2022-10-16T05:09:15;8.57;;;3.67;;
1376;SDS011;682;52.502;13.488;2022-10-16T05:11:42;9.30;;;4.40;;
1376;SDS011;682;52.502;13.488;2022-10-16T05:14:10;7.60;;;4.10;;
1376;SDS011;682;52.502;13.488;2022-10-16T05:16:44;7.57;;;4.00;;
1376;SDS011;682;52.502;13.488;2022-10-16T05:19:22;7.83;;;3.53;;
1376;SDS011;682;52.502;13.488;2022-10-16T05:21:49;7.57;;;3.47;;
1376;SDS011;682;52.502;13.488;2022-10-16T05:24:18;6.97;;;3.50;;
1376;SDS011;682;52.502;13.488;2022-10-16T05:26:46;6.80;;;3.40;;
1376;SDS011;682;52.502;13.488;2022-10-16T05:29:21;6.57;;;3.43;;
1376;SDS011;682;52.502;13.488;2022-10-16T05:31:51;6.63;;;3.33;;
1376;SDS011;682;52.502;13.488;2022-10-16T05:34:19;6.87;;;3.77;;
1376;SDS011;682;52.502;13.488;2022-10-16T05:36:50;7.73;;;3.83;;
1376;SDS011;682;52.502;13.488;2022-10-16T05:39:17;8.13;;;4.40;;
1376;SDS011;682;52.502;13.488;2022-10-16T05:41:44;8.40;;;4.37;;
1376;SDS011;682;52.502;13.488;2022-10-16T05:44:12;7.87;;;4.90;;
1376;SDS011;682;52.502;13.488;2022-10-16T05:46:39;8.00;;;4.60;;
1376;SDS011;682;52.502;13.488;2022-10-16T05:49:08;9.13;;;4.60;;
1376;SDS011;682;52.502;13.488;2022-10-16T05:51:36;8.83;;;4.27;;
1376;SDS011;682;52.502;13.488;2022-10-16T05:54:03;8.50;;;3.40;;
1376;SDS011;682;52.502;13.488;2022-10-16T05:56:30;7.43;;;3.83;;
1376;SDS011;682;52.502;13.488;2022-10-16T05:58:56;7.10;;;3.73;;
1376;SDS011;682;52.502;13.488;2022-10-16T06:01:23;7.20;;;4.50;;
1376;SDS011;682;52.502;13.488;2022-10-16T06:03:51;6.90;;;3.70;;
1376;SDS011;682;52.502;13.488;2022-10-16T06:06:19;6.90;;;3.77;;
1376;SDS011;682;52.502;13.488;2022-10-16T06:08:50;8.77;;;4.20;;
1376;SDS011;682;52.502;13.488;2022-10-16T06:11:18;8.30;;;4.60;;
1376;SDS011;682;52.502;13.488;2022-10-16T06:13:48;7.63;;;4.33;;
1376;SDS011;682;52.502;13.488;2022-10-16T06:16:15;10.57;;;5.80;;
1376;SDS011;682;52.502;13.488;2022-10-16T06:18:42;9.13;;;4.73;;
1376;SDS011;682;52.502;13.488;2022-10-16T06:21:10;7.30;;;4.60;;
1376;SDS011;682;52.502;13.488;2022-10-16T06:23:39;8.73;;;4.93;;
1376;SDS011;682;52.502;13.488;2022-10-16T06:26:07;7.80;;;4.10;;
1376;SDS011;682;52.502;13.488;2022-10-16T06:28:36;7.20;;;3.90;;
1376;SDS011;682;52.502;13.488;2022-10-16T06:31:04;7.53;;;3.63;;
1376;SDS011;682;52.502;13.488;2022-10-16T06:33:34;7.40;;;3.77;;
1376;SDS011;682;52.502;13.488;2022-10-16T06:36:02;7.90;;;3.63;;
1376;SDS011;682;52.502;13.488;2022-10-16T06:38:29;7.63;;;3.63;;
1376;SDS011;682;52.502;13.488;2022-10-16T06:40:56;6.97;;;4.00;;
1376;SDS011;682;52.502;13.488;2022-10-16T06:43:26;6.90;;;3.53;;
1376;SDS011;682;52.502;13.488;2022-10-16T06:45:56;7.47;;;4.13;;
1376;SDS011;682;52.502;13.488;2022-10-16T06:48:24;7.47;;;4.13;;
1376;SDS011;682;52.502;13.488;2022-10-16T06:50:55;7.30;;;4.13;;
1376;SDS011;682;52.502;13.488;2022-10-16T06:53:25;6.90;;;3.30;;
1376;SDS011;682;52.502;13.488;2022-10-16T06:55:53;7.00;;;3.40;;
1376;SDS011;682;52.502;13.488;2022-10-16T06:58:20;6.60;;;3.57;;
1376;SDS011;682;52.502;13.488;2022-10-16T07:00:49;7.17;;;3.67;;
1376;SDS011;682;52.502;13.488;2022-10-16T07:03:21;9.30;;;3.67;;
1376;SDS011;682;52.502;13.488;2022-10-16T07:05:51;8.27;;;3.73;;
1376;SDS011;682;52.502;13.488;2022-10-16T07:08:18;6.60;;;3.20;;
1376;SDS011;682;52.502;13.488;2022-10-16T07:10:44;6.50;;;3.00;;
1376;SDS011;682;52.502;13.488;2022-10-16T07:13:11;6.80;;;3.10;;
1376;SDS011;682;52.502;13.488;2022-10-16T07:15:39;6.30;;;3.07;;
1376;SDS011;682;52.502;13.488;2022-10-16T07:18:07;7.57;;;3.47;;
1376;SDS011;682;52.502;13.488;2022-10-16T07:20:35;6.80;;;2.50;;
1376;SDS011;682;52.502;13.488;2022-10-16T07:23:02;6.90;;;2.90;;
1376;SDS011;682;52.502;13.488;2022-10-16T07:25:29;7.43;;;3.03;;
1376;SDS011;682;52.502;13.488;2022-10-16T07:27:55;8.20;;;3.10;;
1376;SDS011;682;52.502;13.488;2022-10-16T07:30:22;6.40;;;2.53;;
1376;SDS011;682;52.502;13.488;2022-10-16T07:32:49;6.17;;;2.73;;
1376;SDS011;682;52.502;13.488;2022-10-16T07:35:17;5.80;;;2.10;;
1376;SDS011;682;52.502;13.488;2022-10-16T07:37:44;6.67;;;2.67;;
1376;SDS011;682;52.502;13.488;2022-10-16T07:40:14;6.10;;;2.53;;
1376;SDS011;682;52.502;13.488;2022-10-16T07:42:42;6.23;;;2.40;;
1376;SDS011;682;52.502;13.488;2022-10-16T07:45:09;6.60;;;2.43;;
1376;SDS011;682;52.502;13.488;2022-10-16T07:47:36;6.67;;;2.73;;
1376;SDS011;682;52.502;13.488;2022-10-16T07:50:05;6.60;;;2.90;;
1376;SDS011;682;52.502;13.488;2022-10-16T07:52:34;6.63;;;2.80;;
1376;SDS011;682;52.502;13.488;2022-10-16T07:55:01;6.20;;;2.10;;
1376;SDS011;682;52.502;13.488;2022-10-16T07:57:28;5.83;;;2.07;;
1376;SDS011;682;52.502;13.488;2022-10-16T07:59:55;6.03;;;2.23;;
1376;SDS011;682;52.502;13.488;2022-10-16T08:02:21;6.70;;;2.07;;
1376;SDS011;682;52.502;13.488;2022-10-16T08:04:49;6.37;;;2.00;;
1376;SDS011;682;52.502;13.488;2022-10-16T08:07:16;7.50;;;1.77;;
1376;SDS011;682;52.502;13.488;2022-10-16T08:09:44;5.90;;;2.00;;
1376;SDS011;682;52.502;13.488;2022-10-16T08:12:16;7.23;;;2.10;;
1376;SDS011;682;52.502;13.488;2022-10-16T08:14:44;5.60;;;1.90;;
1376;SDS011;682;52.502;13.488;2022-10-16T08:17:14;5.80;;;2.07;;
1376;SDS011;682;52.502;13.488;2022-10-16T08:19:43;5.93;;;1.80;;
1376;SDS011;682;52.502;13.488;2022-10-16T08:22:11;6.80;;;2.43;;
1376;SDS011;682;52.502;13.488;2022-10-16T08:24:38;7.70;;;2.50;;
1376;SDS011;682;52.502;13.488;2022-10-16T08:27:06;6.87;;;2.00;;
1376;SDS011;682;52.502;13.488;2022-10-16T08:29:35;6.97;;;2.10;;
1376;SDS011;682;52.502;13.488;2022-10-16T08:32:03;5.87;;;1.80;;
1376;SDS011;682;52.502;13.488;2022-10-16T08:34:31;7.60;;;2.13;;
1376;SDS011;682;52.502;13.488;2022-10-16T08:36:58;8.87;;;2.23;;
1376;SDS011;682;52.502;13.488;2022-10-16T08:39:24;6.43;;;1.90;;
1376;SDS011;682;52.502;13.488;2022-10-16T08:41:59;7.40;;;2.30;;
1376;SDS011;682;52.502;13.488;2022-10-16T08:47:43;7.20;;;3.87;;
1376;SDS011;682;52.502;13.488;2022-10-16T08:50:19;6.20;;;1.70;;
1376;SDS011;682;52.502;13.488;2022-10-16T08:52:50;5.37;;;1.80;;
1376;SDS011;682;52.502;13.488;2022-10-16T08:55:21;5.60;;;1.80;;
1376;SDS011;682;52.502;13.488;2022-10-16T08:57:56;5.53;;;1.90;;
1376;SDS011;682;52.502;13.488;2022-10-16T09:00:25;5.60;;;2.17;;
1376;SDS011;682;52.502;13.488;2022-10-16T09:02:54;6.20;;;1.77;;
1376;SDS011;682;52.502;13.488;2022-10-16T09:05:37;5.77;;;1.97;;
1376;SDS011;682;52.502;13.488;2022-10-16T09:08:28;7.27;;;1.87;;
1376;SDS011;682;52.502;13.488;2022-10-16T09:11:03;5.73;;;2.00;;
1376;SDS011;682;52.502;13.488;2022-10-16T09:13:40;5.57;;;1.80;;
1376;SDS011;682;52.502;13.488;2022-10-16T09:16:15;5.40;;;1.73;;
1376;SDS011;682;52.502;13.488;2022-10-16T09:18:48;5.73;;;1.80;;
1376;SDS011;682;52.502;13.488;2022-10-16T09:21:24;6.70;;;1.90;;
1376;SDS011;682;52.502;13.488;2022-10-16T09:23:55;5.27;;;1.50;;
1376;SDS011;682;52.502;13.488;2022-10-16T09:26:24;6.60;;;1.90;;
1376;SDS011;682;52.502;13.488;2022-10-16T09:28:53;6.37;;;2.00;;
1376;SDS011;682;52.502;13.488;2022-10-16T09:31:20;6.37;;;2.20;;
1376;SDS011;682;52.502;13.488;2022-10-16T09:33:50;7.33;;;1.97;;
1376;SDS011;682;52.502;13.488;2022-10-16T09:36:21;6.20;;;2.30;;
1376;SDS011;682;52.502;13.488;2022-10-16T09:38:50;5.57;;;1.47;;
1376;SDS011;682;52.502;13.488;2022-10-16T09:41:29;5.20;;;1.60;;
1376;SDS011;682;52.502;13.488;2022-10-16T09:44:00;7.80;;;2.00;;
1376;SDS011;682;52.502;13.488;2022-10-16T09:46:31;5.80;;;1.47;;
1376;SDS011;682;52.502;13.488;2022-10-16T09:49:00;7.40;;;2.27;;
1376;SDS011;682;52.502;13.488;2022-10-16T09:51:30;5.37;;;1.50;;
1376;SDS011;682;52.502;13.488;2022-10-16T09:54:00;5.40;;;1.73;;
1376;SDS011;682;52.502;13.488;2022-10-16T09:56:29;5.77;;;1.60;;
1376;SDS011;682;52.502;13.488;2022-10-16T09:59:10;5.73;;;1.73;;
1376;SDS011;682;52.502;13.488;2022-10-16T10:01:39;5.50;;;1.67;;
1376;SDS011;682;52.502;13.488;2022-10-16T10:04:10;7.83;;;2.00;;
1376;SDS011;682;52.502;13.488;2022-10-16T10:06:40;5.73;;;1.93;;
1376;SDS011;682;52.502;13.488;2022-10-16T10:09:17;6.37;;;2.37;;
1376;SDS011;682;52.502;13.488;2022-10-16T10:11:57;5.03;;;1.70;;
1376;SDS011;682;52.502;13.488;2022-10-16T10:14:30;6.23;;;2.57;;
1376;SDS011;682;52.502;13.488;2022-10-16T10:19:46;5.00;;;1.53;;
1376;SDS011;682;52.502;13.488;2022-10-16T10:25:15;6.20;;;1.40;;
1376;SDS011;682;52.502;13.488;2022-10-16T10:30:49;6.33;;;1.70;;
1376;SDS011;682;52.502;13.488;2022-10-16T10:33:28;18.20;;;4.37;;
1376;SDS011;682;52.502;13.488;2022-10-16T10:36:10;5.83;;;2.07;;
1376;SDS011;682;52.502;13.488;2022-10-16T10:38:48;6.17;;;1.70;;
1376;SDS011;682;52.502;13.488;2022-10-16T10:44:46;5.20;;;1.63;;
1376;SDS011;682;52.502;13.488;2022-10-16T10:47:30;5.83;;;1.70;;
1376;SDS011;682;52.502;13.488;2022-10-16T10:50:12;6.97;;;1.80;;
1376;SDS011;682;52.502;13.488;2022-10-16T10:52:49;9.20;;;1.93;;
1376;SDS011;682;52.502;13.488;2022-10-16T10:55:26;7.17;;;2.00;;
1376;SDS011;682;52.502;13.488;2022-10-16T11:01:12;8.10;;;1.70;;
1376;SDS011;682;52.502;13.488;2022-10-16T11:03:51;5.30;;;1.70;;
1376;SDS011;682;52.502;13.488;2022-10-16T11:06:31;5.83;;;1.50;;
1376;SDS011;682;52.502;13.488;2022-10-16T11:09:03;5.80;;;1.50;;
1376;SDS011;682;52.502;13.488;2022-10-16T11:11:38;6.90;;;1.70;;
1376;SDS011;682;52.502;13.488;2022-10-16T11:14:10;5.40;;;1.20;;
1376;SDS011;682;52.502;13.488;2022-10-16T11:16:42;6.00;;;1.50;;
1376;SDS011;682;52.502;13.488;2022-10-16T11:19:18;4.73;;;1.37;;
1376;SDS011;682;52.502;13.488;2022-10-16T11:21:54;5.10;;;2.17;;
1376;SDS011;682;52.502;13.488;2022-10-16T11:24:29;4.40;;;1.30;;
1376;SDS011;682;52.502;13.488;2022-10-16T11:27:04;7.97;;;1.60;;
1376;SDS011;682;52.502;13.488;2022-10-16T11:29:34;5.93;;;1.27;;
1376;SDS011;682;52.502;13.488;2022-10-16T11:32:17;5.00;;;1.20;;
1376;SDS011;682;52.502;13.488;2022-10-16T11:34:51;5.23;;;1.40;;
1376;SDS011;682;52.502;13.488;2022-10-16T11:37:23;4.93;;;2.43;;
1376;SDS011;682;52.502;13.488;2022-10-16T11:39:54;5.10;;;1.00;;
1376;SDS011;682;52.502;13.488;2022-10-16T11:42:30;4.87;;;1.33;;
1376;SDS011;682;52.502;13.488;2022-10-16T11:45:04;5.40;;;1.07;;
1376;SDS011;682;52.502;13.488;2022-10-16T11:47:44;5.10;;;1.60;;
1376;SDS011;682;52.502;13.488;2022-10-16T11:50:20;4.70;;;1.10;;
1376;SDS011;682;52.502;13.488;2022-10-16T11:52:52;5.60;;;1.20;;
1376;SDS011;682;52.502;13.488;2022-10-16T11:55:26;5.20;;;1.17;;
1376;SDS011;682;52.502;13.488;2022-10-16T11:58:00;5.43;;;1.50;;
1376;SDS011;682;52.502;13.488;2022-10-16T12:00:33;6.50;;;3.43;;
1376;SDS011;682;52.502;13.488;2022-10-16T12:03:09;5.80;;;1.47;;
1376;SDS011;682;52.502;13.488;2022-10-16T12:05:52;4.97;;;1.33;;
1376;SDS011;682;52.502;13.488;2022-10-16T12:08:29;4.50;;;1.23;;
1376;SDS011;682;52.502;13.488;2022-10-16T12:11:06;6.30;;;1.70;;
1376;SDS011;682;52.502;13.488;2022-10-16T12:13:34;5.90;;;1.90;;
1376;SDS011;682;52.502;13.488;2022-10-16T12:16:22;5.20;;;1.30;;
1376;SDS011;682;52.502;13.488;2022-10-16T12:18:49;4.77;;;1.53;;
1376;SDS011;682;52.502;13.488;2022-10-16T12:21:33;6.10;;;1.30;;
1376;SDS011;682;52.502;13.488;2022-10-16T12:24:00;4.40;;;1.00;;
1376;SDS011;682;52.502;13.488;2022-10-16T12:26:31;5.23;;;1.57;;
1376;SDS011;682;52.502;13.488;2022-10-16T12:29:10;5.17;;;1.03;;
1376;SDS011;682;52.502;13.488;2022-10-16T12:31:43;5.53;;;1.20;;
1376;SDS011;682;52.502;13.488;2022-10-16T12:34:14;4.63;;;1.37;;
1376;SDS011;682;52.502;13.488;2022-10-16T12:36:49;4.80;;;0.90;;
1376;SDS011;682;52.502;13.488;2022-10-16T12:39:20;5.03;;;1.00;;
1376;SDS011;682;52.502;13.488;2022-10-16T12:41:59;4.30;;;1.10;;
1376;SDS011;682;52.502;13.488;2022-10-16T12:44:31;5.90;;;1.30;;
1376;SDS011;682;52.502;13.488;2022-10-16T12:46:59;4.70;;;0.97;;
1376;SDS011;682;52.502;13.488;2022-10-16T12:49:30;5.83;;;1.37;;
1376;SDS011;682;52.502;13.488;2022-10-16T12:52:04;4.90;;;1.13;;
1376;SDS011;682;52.502;13.488;2022-10-16T12:54:31;4.93;;;1.20;;
1376;SDS011;682;52.502;13.488;2022-10-16T12:57:12;5.53;;;1.27;;
1376;SDS011;682;52.502;13.488;2022-10-16T12:59:53;4.70;;;1.10;;
1376;SDS011;682;52.502;13.488;2022-10-16T13:05:41;5.50;;;1.47;;
1376;SDS011;682;52.502;13.488;2022-10-16T13:08:38;4.70;;;1.10;;
1376;SDS011;682;52.502;13.488;2022-10-16T13:11:26;4.63;;;1.03;;
1376;SDS011;682;52.502;13.488;2022-10-16T13:14:15;4.50;;;0.90;;
1376;SDS011;682;52.502;13.488;2022-10-16T13:16:56;5.23;;;1.13;;
1376;SDS011;682;52.502;13.488;2022-10-16T13:19:32;4.50;;;1.20;;
1376;SDS011;682;52.502;13.488;2022-10-16T13:22:11;6.40;;;1.57;;
1376;SDS011;682;52.502;13.488;2022-10-16T13:24:49;4.50;;;1.00;;
1376;SDS011;682;52.502;13.488;2022-10-16T13:27:26;4.40;;;1.10;;
1376;SDS011;682;52.502;13.488;2022-10-16T13:30:02;5.10;;;1.20;;
1376;SDS011;682;52.502;13.488;2022-10-16T13:32:38;5.10;;;1.13;;
1376;SDS011;682;52.502;13.488;2022-10-16T13:35:17;5.00;;;1.27;;
1376;SDS011;682;52.502;13.488;2022-10-16T13:37:46;4.40;;;1.17;;
1376;SDS011;682;52.502;13.488;2022-10-16T13:40:21;5.50;;;1.40;;
1376;SDS011;682;52.502;13.488;2022-10-16T13:42:49;4.70;;;1.03;;
1376;SDS011;682;52.502;13.488;2022-10-16T13:45:19;5.70;;;1.33;;
1376;SDS011;682;52.502;13.488;2022-10-16T13:47:47;4.63;;;0.93;;
1376;SDS011;682;52.502;13.488;2022-10-16T13:50:15;4.80;;;1.40;;
1376;SDS011;682;52.502;13.488;2022-10-16T13:52:42;4.23;;;0.97;;
1376;SDS011;682;52.502;13.488;2022-10-16T13:55:12;6.03;;;2.53;;
1376;SDS011;682;52.502;13.488;2022-10-16T13:57:41;4.43;;;1.07;;
1376;SDS011;682;52.502;13.488;2022-10-16T14:00:19;4.03;;;0.83;;
1376;SDS011;682;52.502;13.488;2022-10-16T14:02:50;6.37;;;1.30;;
1376;SDS011;682;52.502;13.488;2022-10-16T14:05:22;4.40;;;1.27;;
1376;SDS011;682;52.502;13.488;2022-10-16T14:07:51;5.77;;;1.50;;
1376;SDS011;682;52.502;13.488;2022-10-16T14:10:22;5.67;;;1.20;;
1376;SDS011;682;52.502;13.488;2022-10-16T14:13:04;4.87;;;1.33;;
1376;SDS011;682;52.502;13.488;2022-10-16T14:15:33;6.33;;;1.43;;
1376;SDS011;682;52.502;13.488;2022-10-16T14:18:02;4.93;;;1.30;;
1376;SDS011;682;52.502;13.488;2022-10-16T14:20:30;6.10;;;1.40;;
1376;SDS011;682;52.502;13.488;2022-10-16T14:23:00;6.00;;;1.40;;
1376;SDS011;682;52.502;13.488;2022-10-16T14:25:29;5.27;;;1.30;;
1376;SDS011;682;52.502;13.488;2022-10-16T14:27:59;5.30;;;1.20;;
1376;SDS011;682;52.502;13.488;2022-10-16T14:30:28;4.67;;;0.80;;
1376;SDS011;682;52.502;13.488;2022-10-16T14:32:57;5.00;;;1.33;;
1376;SDS011;682;52.502;13.488;2022-10-16T14:35:26;4.80;;;1.13;;
1376;SDS011;682;52.502;13.488;2022-10-16T14:37:58;4.73;;;1.10;;
1376;SDS011;682;52.502;13.488;2022-10-16T14:40:27;5.40;;;1.27;;
1376;SDS011;682;52.502;13.488;2022-10-16T14:42:55;7.13;;;1.83;;
1376;SDS011;682;52.502;13.488;2022-10-16T14:45:25;4.93;;;1.33;;
1376;SDS011;682;52.502;13.488;2022-10-16T14:47:54;9.13;;;1.57;;
1376;SDS011;682;52.502;13.488;2022-10-16T14:50:24;7.00;;;1.87;;
1376;SDS011;682;52.502;13.488;2022-10-16T14:52:51;6.00;;;1.77;;
1376;SDS011;682;52.502;13.488;2022-10-16T14:55:18;6.20;;;1.30;;
1376;SDS011;682;52.502;13.488;2022-10-16T14:57:45;5.20;;;1.43;;
1376;SDS011;682;52.502;13.488;2022-10-16T15:00:14;6.90;;;2.90;;
1376;SDS011;682;52.502;13.488;2022-10-16T15:02:48;6.77;;;2.10;;
1376;SDS011;682;52.502;13.488;2022-10-16T15:05:16;6.63;;;1.50;;
1376;SDS011;682;52.502;13.488;2022-10-16T15:07:44;5.60;;;1.33;;
1376;SDS011;682;52.502;13.488;2022-10-16T15:10:12;5.70;;;1.47;;
1376;SDS011;682;52.502;13.488;2022-10-16T15:12:41;5.40;;;1.43;;
1376;SDS011;682;52.502;13.488;2022-10-16T15:15:23;5.97;;;1.20;;
1376;SDS011;682;52.502;13.488;2022-10-16T15:17:58;8.63;;;4.20;;
1376;SDS011;682;52.502;13.488;2022-10-16T15:20:26;5.00;;;1.40;;
1376;SDS011;682;52.502;13.488;2022-10-16T15:22:55;5.30;;;1.40;;
1376;SDS011;682;52.502;13.488;2022-10-16T15:25:27;8.83;;;2.00;;
1376;SDS011;682;52.502;13.488;2022-10-16T15:27:56;7.17;;;2.03;;
1376;SDS011;682;52.502;13.488;2022-10-16T15:30:24;5.97;;;1.40;;
1376;SDS011;682;52.502;13.488;2022-10-16T15:32:51;5.53;;;1.63;;
1376;SDS011;682;52.502;13.488;2022-10-16T15:35:19;5.93;;;1.47;;
1376;SDS011;682;52.502;13.488;2022-10-16T15:37:46;7.33;;;1.60;;
1376;SDS011;682;52.502;13.488;2022-10-16T15:40:16;6.10;;;1.87;;
1376;SDS011;682;52.502;13.488;2022-10-16T15:42:45;6.60;;;1.63;;
1376;SDS011;682;52.502;13.488;2022-10-16T15:45:13;6.03;;;2.00;;
1376;SDS011;682;52.502;13.488;2022-10-16T15:47:40;7.10;;;1.87;;
1376;SDS011;682;52.502;13.488;2022-10-16T15:50:08;8.43;;;2.30;;
1376;SDS011;682;52.502;13.488;2022-10-16T15:52:37;6.73;;;2.20;;
1376;SDS011;682;52.502;13.488;2022-10-16T15:55:05;8.43;;;2.80;;
1376;SDS011;682;52.502;13.488;2022-10-16T15:57:34;5.80;;;1.47;;
1376;SDS011;682;52.502;13.488;2022-10-16T16:00:05;7.53;;;2.10;;